createdAt,value
2023-03-13T06:20:56.182Z,73.90
2023-03-13T06:25:00.653Z,73.90
2023-03-13T06:37:45.266Z,73.60
2023-03-13T06:42:06.046Z,73.30
2023-03-13T06:46:18.802Z,73.50
2023-03-13T06:50:28.925Z,73.80
2023-03-13T06:54:32.361Z,73.80
2023-03-13T06:58:36.842Z,73.40
2023-03-13T07:06:58.708Z,73.10
2023-03-13T07:15:27.852Z,73.20
2023-03-13T07:19:32.719Z,73.40
2023-03-13T07:23:46.480Z,73.10
2023-03-13T07:27:54.162Z,73.00
2023-03-13T09:36:40.110Z,65.00
2023-03-13T09:45:34.538Z,62.70
2023-03-13T09:50:07.614Z,62.20
2023-03-13T09:58:46.016Z,60.80
2023-03-13T10:03:07.251Z,60.60
2023-03-13T10:07:20.732Z,60.50
2023-03-13T10:11:25.903Z,59.90
2023-03-13T10:15:29.784Z,59.00
2023-03-13T10:24:24.720Z,57.50
2023-03-13T10:42:32.204Z,54.20
2023-03-13T10:46:42.679Z,53.90
2023-03-13T10:50:50.234Z,53.90
2023-03-13T10:55:08.375Z,53.80
2023-03-13T11:03:53.560Z,54.20
2023-03-13T11:18:04.384Z,54.20
2023-03-13T11:40:50.261Z,53.40
2023-03-13T11:59:41.568Z,52.60
2023-03-13T12:17:40.772Z,50.90
2023-03-13T13:19:53.680Z,47.90
2023-03-13T13:24:22.985Z,47.70
2023-03-13T13:28:32.234Z,47.70
2023-03-13T13:32:37.198Z,47.90
2023-03-13T13:36:44.551Z,48.00
2023-03-13T13:41:22.341Z,48.20
2023-03-13T13:45:33.822Z,48.40
2023-03-13T13:49:38.093Z,48.70
2023-03-13T13:53:49.449Z,48.90
2023-03-13T13:58:00.348Z,48.90
2023-03-13T14:02:18.764Z,48.90
2023-03-13T14:06:24.222Z,49.10
2023-03-13T14:10:37.329Z,49.20
2023-03-13T14:14:45.972Z,49.20
2023-03-13T14:23:49.817Z,49.50
2023-03-13T14:28:03.553Z,49.90
2023-03-13T14:32:07.584Z,50.10
2023-03-13T14:36:16.757Z,50.50
2023-03-13T14:40:20.039Z,50.80
2023-03-13T14:44:26.886Z,51.00
2023-03-13T14:48:36.369Z,51.10
2023-03-13T14:52:44.839Z,51.40
2023-03-13T14:56:47.722Z,51.60
2023-03-13T15:00:50.869Z,51.80
2023-03-13T15:05:01.908Z,52.00
2023-03-13T15:13:41.057Z,52.20
2023-03-13T15:17:52.637Z,52.00
2023-03-13T15:21:59.051Z,51.40
2023-03-13T15:26:02.881Z,51.40
2023-03-13T15:30:06.311Z,51.20
2023-03-13T15:34:12.013Z,51.30
2023-03-13T15:38:24.745Z,51.60
2023-03-13T15:42:28.039Z,51.70
2023-03-13T15:46:31.057Z,51.40
2023-03-13T15:50:34.765Z,51.40
2023-03-13T15:54:37.983Z,51.50
2023-03-13T15:58:47.129Z,51.50
2023-03-13T16:02:50.250Z,51.50
2023-03-13T16:06:53.725Z,51.40
2023-03-13T16:11:05.933Z,51.70
2023-03-13T16:42:06.066Z,55.50
2023-03-13T16:46:31.606Z,56.40
2023-03-13T16:50:37.725Z,57.70
2023-03-13T16:54:50.321Z,58.20
2023-03-13T16:58:56.149Z,58.90
2023-03-13T17:07:21.514Z,59.70
2023-03-13T17:11:26.209Z,59.70
2023-03-13T17:15:30.181Z,60.70
2023-03-13T17:19:34.040Z,61.40
2023-03-13T17:23:37.323Z,61.80
2023-03-13T17:27:41.409Z,61.80
2023-03-13T17:31:46.793Z,62.10
2023-03-13T17:40:26.385Z,62.40
2023-03-13T17:44:30.959Z,62.60
2023-03-13T17:48:34.512Z,62.70
2023-03-13T18:01:19.203Z,63.20
2023-03-13T18:05:25.962Z,63.50
2023-03-13T18:09:30.355Z,64.00
2023-03-13T18:13:42.670Z,64.50
2023-03-13T18:17:53.841Z,64.80
2023-03-13T18:26:23.694Z,65.40
2023-03-13T18:30:33.076Z,65.70
2023-03-13T18:34:40.328Z,66.20
2023-03-13T18:38:44.342Z,66.40
2023-03-13T18:47:20.349Z,67.00
2023-03-13T18:51:25.504Z,67.30
2023-03-13T18:55:30.332Z,67.50
2023-03-13T18:59:35.415Z,67.50
2023-03-13T19:03:43.270Z,67.60
2023-03-13T19:07:59.659Z,68.10
2023-03-13T19:49:46.659Z,69.40
2023-03-13T19:54:01.671Z,69.50
2023-03-13T21:35:10.447Z,69.70
2023-03-13T21:39:21.399Z,69.70
2023-03-13T21:43:29.716Z,69.80
2023-03-13T21:47:41.438Z,69.80
2023-03-13T21:51:44.372Z,69.90
2023-03-13T21:55:51.453Z,70.00
2023-03-13T22:04:19.581Z,70.30
2023-03-13T22:12:39.863Z,71.00
2023-03-13T22:16:47.835Z,71.30
2023-03-13T22:20:55.141Z,71.50
2023-03-13T22:24:58.132Z,71.10
2023-03-13T22:29:03.389Z,70.60
2023-03-13T22:33:07.193Z,69.90
2023-03-13T22:37:13.068Z,69.20
2023-03-13T22:41:18.885Z,68.30
2023-03-13T22:45:26.540Z,67.90
2023-03-13T22:53:47.200Z,67.10
2023-03-13T22:57:50.994Z,66.60
2023-03-13T23:01:55.089Z,66.40
2023-03-13T23:05:58.483Z,65.90
2023-03-13T23:10:01.851Z,65.30
2023-03-13T23:14:06.534Z,65.20
2023-03-13T23:18:14.886Z,64.80
2023-03-13T23:22:22.107Z,64.60
2023-03-13T23:26:25.098Z,64.00
2023-03-13T23:30:30.697Z,63.80
2023-03-13T23:34:38.549Z,63.40
2023-03-13T23:38:41.832Z,63.00
2023-03-13T23:42:46.641Z,62.90
2023-03-13T23:46:49.847Z,62.40
2023-03-13T23:50:53.135Z,62.20
2023-03-13T23:54:58.910Z,62.30
